createdAt,value
2023-01-02T00:02:07.091Z,8.27
2023-01-02T00:07:10.935Z,7.50
2023-01-02T00:12:14.331Z,7.07
2023-01-02T00:17:20.656Z,6.93
2023-01-02T00:22:24.283Z,7.10
2023-01-02T00:27:27.670Z,6.90
2023-01-02T00:32:32.336Z,7.05
2023-01-02T00:37:35.731Z,6.88
2023-01-02T00:42:39.132Z,6.20
2023-01-02T00:47:43.830Z,6.80
2023-01-02T00:52:47.669Z,6.15
2023-01-02T00:57:51.304Z,6.43
2023-01-02T01:02:58.663Z,5.80
2023-01-02T01:08:02.533Z,6.47
2023-01-02T01:13:06.364Z,5.97
2023-01-02T01:18:11.106Z,6.30
2023-01-02T01:23:14.478Z,6.13
2023-01-02T01:28:17.940Z,5.25
2023-01-02T01:33:22.891Z,6.40
2023-01-02T01:38:26.266Z,7.18
2023-01-02T01:43:43.340Z,7.28
2023-01-02T01:48:51.165Z,7.53
2023-01-02T01:53:58.739Z,8.43
2023-01-02T01:59:02.699Z,10.38
2023-01-02T02:04:08.289Z,8.50
2023-01-02T02:09:17.910Z,8.52
2023-01-02T02:14:21.311Z,8.70
2023-01-02T02:20:02.328Z,9.25
2023-01-02T02:25:34.386Z,9.45
2023-01-02T02:30:41.622Z,8.13
2023-01-02T02:35:54.368Z,8.98
2023-01-02T02:41:06.802Z,8.77
2023-01-02T02:46:18.071Z,8.32
2023-01-02T02:51:31.476Z,9.10
2023-01-02T02:56:35.569Z,9.57
2023-01-02T03:01:40.356Z,9.00
2023-01-02T03:07:01.621Z,8.38
2023-01-02T03:12:14.057Z,8.23
2023-01-02T03:17:26.764Z,9.43
2023-01-02T03:22:34.885Z,7.97
2023-01-02T03:27:42.870Z,8.32
2023-01-02T03:32:52.019Z,8.38
2023-01-02T03:37:58.753Z,8.02
2023-01-02T03:43:08.249Z,9.07
2023-01-02T03:48:21.935Z,8.98
2023-01-02T03:53:26.092Z,8.93
2023-01-02T03:58:38.289Z,8.77
2023-01-02T04:03:50.400Z,10.10
2023-01-02T04:09:00.990Z,9.60
2023-01-02T04:14:11.402Z,9.02
2023-01-02T04:19:24.192Z,8.10
2023-01-02T04:24:32.360Z,7.93
2023-01-02T04:29:35.847Z,7.75
2023-01-02T04:34:43.199Z,7.68
2023-01-02T04:39:47.035Z,6.70
2023-01-02T04:44:50.432Z,7.10
2023-01-02T04:49:55.223Z,7.15
2023-01-02T04:54:58.626Z,6.68
2023-01-02T05:00:02.017Z,6.50
2023-01-02T05:05:08.415Z,6.63
2023-01-02T05:10:11.887Z,5.95
2023-01-02T05:15:15.318Z,4.43
2023-01-02T05:20:20.518Z,3.47
2023-01-02T05:25:23.982Z,3.60
2023-01-02T05:30:27.798Z,3.47
2023-01-02T05:35:33.595Z,3.78
2023-01-02T05:40:37.428Z,4.28
2023-01-02T05:45:40.846Z,5.63
2023-01-02T05:50:45.558Z,5.90
2023-01-02T05:55:48.961Z,5.07
2023-01-02T06:00:52.345Z,4.05
2023-01-02T06:05:57.203Z,4.53
2023-01-02T06:11:00.701Z,5.38
2023-01-02T06:16:05.862Z,5.40
2023-01-02T06:21:13.599Z,5.50
2023-01-02T06:26:19.214Z,5.57
2023-01-02T06:31:24.550Z,5.10
2023-01-02T06:36:31.608Z,5.05
2023-01-02T06:41:35.040Z,3.83
2023-01-02T06:46:38.931Z,4.63
2023-01-02T06:51:43.960Z,5.63
2023-01-02T06:56:47.337Z,4.43
2023-01-02T07:01:50.822Z,4.95
2023-01-02T07:06:55.739Z,4.32
2023-01-02T07:11:59.498Z,4.30
2023-01-02T07:17:03.222Z,4.43
2023-01-02T07:22:08.203Z,6.22
2023-01-02T07:27:11.601Z,7.32
2023-01-02T07:32:15.020Z,6.97
2023-01-02T07:37:20.037Z,6.05
2023-01-02T07:42:23.399Z,6.25
2023-01-02T07:47:27.066Z,6.30
2023-01-02T07:52:31.798Z,5.82
2023-01-02T07:57:35.154Z,5.85
2023-01-02T08:02:38.730Z,5.07
2023-01-02T08:07:45.212Z,5.00
2023-01-02T08:12:48.768Z,4.78
2023-01-02T08:17:52.440Z,5.20
2023-01-02T08:22:58.533Z,5.95
2023-01-02T08:28:01.920Z,8.38
2023-01-02T08:33:05.386Z,7.10
2023-01-02T08:38:10.135Z,5.05
2023-01-02T08:43:13.568Z,5.20
2023-01-02T08:48:21.017Z,5.78
2023-01-02T08:53:26.464Z,5.05
2023-01-02T08:58:30.134Z,4.75
2023-01-02T09:03:33.613Z,5.78
2023-01-02T09:08:38.406Z,5.20
2023-01-02T09:13:42.272Z,5.00
2023-01-02T09:18:45.747Z,5.97
2023-01-02T09:23:50.564Z,5.85
2023-01-02T09:28:54.264Z,5.18
2023-01-02T09:33:57.951Z,5.47
2023-01-02T09:39:03.422Z,5.30
2023-01-02T09:44:12.436Z,4.32
2023-01-02T09:49:19.343Z,5.50
2023-01-02T09:54:30.006Z,5.15
2023-01-02T09:59:37.311Z,5.40
2023-01-02T10:04:56.810Z,5.55
2023-01-02T10:10:07.101Z,4.53
2023-01-02T10:15:15.064Z,4.50
2023-01-02T10:20:26.376Z,4.65
2023-01-02T10:25:34.544Z,4.25
2023-01-02T10:30:44.798Z,4.28
2023-01-02T10:35:54.305Z,3.40
2023-01-02T10:40:59.387Z,3.63
2023-01-02T10:46:04.177Z,3.70
2023-01-02T10:51:15.482Z,3.92
2023-01-02T10:56:21.379Z,3.35
2023-01-02T11:01:24.975Z,3.78
2023-01-02T11:06:38.935Z,4.82
2023-01-02T11:11:51.183Z,3.80
2023-01-02T11:16:55.640Z,3.47
2023-01-02T11:22:00.037Z,4.10
2023-01-02T11:27:04.960Z,3.78
2023-01-02T11:32:08.741Z,4.13
2023-01-02T11:37:17.972Z,4.53
2023-01-02T11:42:46.573Z,4.22
2023-01-02T11:47:52.237Z,4.13
2023-01-02T11:53:00.226Z,4.40
2023-01-02T11:58:13.144Z,4.43
2023-01-02T12:08:40.381Z,4.05
2023-01-02T12:14:01.383Z,5.63
2023-01-02T12:19:29.771Z,5.53
2023-01-02T12:24:54.011Z,6.05
2023-01-02T12:30:08.294Z,5.53
2023-01-02T12:35:23.676Z,5.95
2023-01-02T12:40:53.132Z,6.30
2023-01-02T12:46:09.597Z,6.78
2023-01-02T12:51:20.713Z,6.70
2023-01-02T12:56:31.501Z,6.50
2023-01-02T13:01:41.162Z,6.40
2023-01-02T13:06:52.325Z,6.30
2023-01-02T13:12:02.250Z,6.55
2023-01-02T13:17:25.685Z,7.25
2023-01-02T13:22:37.745Z,7.55
2023-01-02T13:27:41.934Z,7.13
2023-01-02T13:32:49.264Z,6.53
2023-01-02T13:37:54.215Z,6.93
2023-01-02T13:43:00.462Z,8.02
2023-01-02T13:48:07.801Z,8.55
2023-01-02T13:53:30.173Z,6.82
2023-01-02T13:59:01.458Z,6.90
2023-01-02T14:04:41.734Z,7.47
2023-01-02T14:10:21.876Z,7.43
2023-01-02T14:15:27.306Z,7.82
2023-01-02T14:20:32.515Z,6.05
2023-01-02T14:25:48.920Z,5.97
2023-01-02T14:30:53.058Z,5.90
2023-01-02T14:35:58.775Z,6.60
2023-01-02T14:41:17.419Z,9.00
2023-01-02T14:46:23.984Z,7.63
2023-01-02T14:51:34.069Z,8.13
2023-01-02T14:56:42.436Z,6.60
2023-01-02T15:01:50.969Z,8.50
2023-01-02T15:07:10.511Z,10.10
2023-01-02T15:12:41.446Z,10.10
2023-01-02T15:17:48.212Z,7.88
2023-01-02T15:22:54.366Z,6.60
2023-01-02T15:27:59.126Z,6.38
2023-01-02T15:33:02.490Z,7.10
2023-01-02T15:38:19.343Z,7.05
2023-01-02T15:43:49.401Z,7.32
2023-01-02T15:48:53.955Z,8.15
2023-01-02T15:54:03.006Z,10.50
2023-01-02T15:59:29.671Z,9.48
2023-01-02T16:04:34.401Z,10.90
2023-01-02T16:09:39.076Z,10.02
2023-01-02T16:14:49.592Z,8.45
2023-01-02T16:19:58.811Z,8.38
2023-01-02T16:25:08.347Z,7.90
2023-01-02T16:30:41.108Z,7.18
2023-01-02T16:35:58.222Z,8.65
2023-01-02T16:41:08.407Z,7.85
2023-01-02T16:46:16.290Z,9.82
2023-01-02T16:51:19.854Z,8.88
2023-01-02T16:56:24.009Z,9.57
2023-01-02T17:01:28.848Z,11.65
2023-01-02T17:06:32.479Z,12.13
2023-01-02T17:11:36.058Z,12.70
2023-01-02T17:16:40.827Z,9.88
2023-01-02T17:21:44.239Z,10.13
2023-01-02T17:26:48.181Z,10.10
2023-01-02T17:31:52.939Z,11.27
2023-01-02T17:36:57.042Z,12.60
2023-01-02T17:42:00.438Z,11.30
2023-01-02T17:47:38.574Z,13.45
2023-01-02T17:52:28.917Z,12.93
2023-01-02T17:57:32.472Z,13.13
2023-01-02T18:02:37.440Z,13.52
2023-01-02T18:07:40.905Z,14.20
2023-01-02T18:12:45.232Z,13.75
2023-01-02T18:17:50.891Z,14.75
2023-01-02T18:22:54.596Z,13.93
2023-01-02T18:28:03.025Z,14.38
2023-01-02T18:33:15.807Z,13.82
2023-01-02T18:38:32.126Z,14.43
2023-01-02T18:43:36.529Z,13.38
2023-01-02T18:48:42.039Z,12.48
2023-01-02T18:53:48.690Z,13.00
2023-01-02T18:58:59.814Z,12.95
2023-01-02T19:04:26.752Z,12.90
2023-01-02T19:09:35.093Z,15.10
2023-01-02T19:14:40.732Z,13.70
2023-01-02T19:19:47.856Z,13.10
2023-01-02T19:24:51.586Z,13.23
2023-01-02T19:29:55.701Z,13.13
2023-01-02T19:35:03.336Z,13.15
2023-01-02T19:40:18.688Z,11.75
2023-01-02T19:45:24.681Z,13.48
2023-01-02T19:50:29.437Z,15.35
2023-01-02T19:55:36.745Z,18.15
2023-01-02T20:00:40.222Z,13.63
2023-01-02T20:05:45.006Z,12.15
2023-01-02T20:10:48.693Z,14.70
2023-01-02T20:15:53.209Z,14.38
2023-01-02T20:20:58.384Z,9.50
2023-01-02T20:26:01.733Z,6.07
2023-01-02T20:31:09.891Z,6.80
2023-01-02T20:36:14.945Z,5.78
2023-01-02T20:41:18.892Z,5.68
2023-01-02T20:46:22.871Z,5.40
2023-01-02T20:51:30.247Z,5.63
2023-01-02T20:56:34.072Z,5.57
2023-01-02T21:01:37.851Z,6.80
2023-01-02T21:06:42.759Z,8.02
2023-01-02T21:11:46.466Z,8.20
2023-01-02T21:16:50.085Z,9.10
2023-01-02T21:21:54.842Z,9.70
2023-01-02T21:26:58.230Z,9.48
2023-01-02T21:32:01.581Z,8.18
2023-01-02T21:37:07.811Z,7.50
2023-01-02T21:42:17.373Z,6.95
2023-01-02T21:47:21.449Z,5.85
2023-01-02T21:52:26.555Z,7.40
2023-01-02T21:58:02.555Z,7.75
2023-01-02T22:02:53.706Z,7.45
2023-01-02T22:07:59.563Z,7.65
2023-01-02T22:13:02.981Z,7.43
2023-01-02T22:18:06.509Z,7.57
2023-01-02T22:23:11.247Z,6.75
2023-01-02T22:28:14.933Z,6.25
2023-01-02T22:33:18.732Z,6.85
2023-01-02T22:38:23.764Z,7.47
2023-01-02T22:43:28.932Z,6.95
2023-01-02T22:48:36.938Z,7.38
2023-01-02T22:53:42.414Z,7.43
2023-01-02T22:58:47.094Z,6.78
2023-01-02T23:03:50.955Z,7.45
2023-01-02T23:08:56.044Z,7.43
2023-01-02T23:13:59.472Z,7.20
2023-01-02T23:19:18.937Z,6.63
2023-01-02T23:24:26.009Z,6.43
2023-01-02T23:29:30.170Z,7.00
2023-01-02T23:34:33.777Z,6.78
2023-01-02T23:39:38.637Z,6.85
2023-01-02T23:44:44.001Z,6.90
2023-01-02T23:49:47.383Z,6.75
2023-01-02T23:54:52.166Z,7.32
2023-01-02T23:59:55.800Z,7.20
